sensor_id;sensor_type;location;lat;lon;timestamp;pressure;altitude;pressure_sealevel;temperature;humidity
51178;BME280;37243;49.814;8.652;2023-03-01T00:01:43;101282.53;;;23.72;39.70
51178;BME280;37243;49.814;8.652;2023-03-01T00:04:11;101278.16;;;23.71;39.97
51178;BME280;37243;49.814;8.652;2023-03-01T00:06:40;101278.16;;;23.71;39.49
51178;BME280;37243;49.814;8.652;2023-03-01T00:09:11;101286.38;;;23.71;39.51
51178;BME280;37243;49.814;8.652;2023-03-01T00:11:42;101285.56;;;23.70;39.96
51178;BME280;37243;49.814;8.652;2023-03-01T00:14:11;101288.03;;;23.72;40.23
51178;BME280;37243;49.814;8.652;2023-03-01T00:16:43;101286.38;;;23.71;39.95
51178;BME280;37243;49.814;8.652;2023-03-01T00:19:13;101273.78;;;23.70;39.81
51178;BME280;37243;49.814;8.652;2023-03-01T00:21:41;101275.41;;;23.71;39.86
51178;BME280;37243;49.814;8.652;2023-03-01T00:24:10;101281.72;;;23.71;40.16
51178;BME280;37243;49.814;8.652;2023-03-01T00:26:42;101286.38;;;23.71;40.19
51178;BME280;37243;49.814;8.652;2023-03-01T00:29:10;101280.06;;;23.70;39.50
51178;BME280;37243;49.814;8.652;2023-03-01T00:31:38;101284.72;;;23.70;39.94
51178;BME280;37243;49.814;8.652;2023-03-01T00:34:07;101274.59;;;23.70;39.75
51178;BME280;37243;49.814;8.652;2023-03-01T00:36:37;101273.78;;;23.70;40.12
51178;BME280;37243;49.814;8.652;2023-03-01T00:39:09;101280.91;;;23.71;39.62
51178;BME280;37243;49.814;8.652;2023-03-01T00:41:38;101271.84;;;23.70;39.51
51178;BME280;37243;49.814;8.652;2023-03-01T00:44:10;101267.47;;;23.69;39.51
51178;BME280;37243;49.814;8.652;2023-03-01T00:46:38;101275.41;;;23.71;39.45
51178;BME280;37243;49.814;8.652;2023-03-01T00:49:06;101266.38;;;23.70;39.53
51178;BME280;37243;49.814;8.652;2023-03-01T00:51:35;101262.00;;;23.69;39.58
51178;BME280;37243;49.814;8.652;2023-03-01T00:54:04;101266.38;;;23.70;39.51
51178;BME280;37243;49.814;8.652;2023-03-01T00:56:32;101255.72;;;23.69;39.58
51178;BME280;37243;49.814;8.652;2023-03-01T00:59:01;101252.97;;;23.69;39.52
51178;BME280;37243;49.814;8.652;2023-03-01T01:01:32;101250.25;;;23.69;39.98
51178;BME280;37243;49.814;8.652;2023-03-01T01:04:02;101248.59;;;23.68;39.86
51178;BME280;37243;49.814;8.652;2023-03-01T01:06:33;101243.13;;;23.68;40.15
51178;BME280;37243;49.814;8.652;2023-03-01T01:09:03;101232.97;;;23.68;39.96
51178;BME280;37243;49.814;8.652;2023-03-01T01:11:33;101223.94;;;23.68;39.86
51178;BME280;37243;49.814;8.652;2023-03-01T01:14:02;101221.19;;;23.68;39.83
51178;BME280;37243;49.814;8.652;2023-03-01T01:16:33;101208.59;;;23.67;40.18
51178;BME280;37243;49.814;8.652;2023-03-01T01:19:02;101196.03;;;23.66;40.08
51178;BME280;37243;49.814;8.652;2023-03-01T01:21:30;101203.13;;;23.67;39.83
51178;BME280;37243;49.814;8.652;2023-03-01T01:23:59;101203.13;;;23.67;40.11
51178;BME280;37243;49.814;8.652;2023-03-01T01:26:29;101198.78;;;23.66;39.49
51178;BME280;37243;49.814;8.652;2023-03-01T01:28:57;101194.09;;;23.66;39.60
51178;BME280;37243;49.814;8.652;2023-03-01T01:31:27;101197.66;;;23.67;39.45
51178;BME280;37243;49.814;8.652;2023-03-01T01:34:00;101197.94;;;23.65;39.92
51178;BME280;37243;49.814;8.652;2023-03-01T01:36:29;101197.66;;;23.67;40.18
51178;BME280;37243;49.814;8.652;2023-03-01T01:38:58;101196.03;;;23.66;39.78
51178;BME280;37243;49.814;8.652;2023-03-01T01:41:28;101201.50;;;23.66;40.12
51178;BME280;37243;49.814;8.652;2023-03-01T01:44:13;101190.00;;;23.64;39.47
51178;BME280;37243;49.814;8.652;2023-03-01T01:46:43;101185.06;;;23.66;40.08
51178;BME280;37243;49.814;8.652;2023-03-01T01:49:22;101181.78;;;23.64;39.41
51178;BME280;37243;49.814;8.652;2023-03-01T01:51:57;101177.13;;;23.64;39.82
51178;BME280;37243;49.814;8.652;2023-03-01T01:54:31;101181.50;;;23.65;39.75
51178;BME280;37243;49.814;8.652;2023-03-01T01:57:05;101177.94;;;23.65;39.34
51178;BME280;37243;49.814;8.652;2023-03-01T01:59:36;101177.94;;;23.65;39.41
51178;BME280;37243;49.814;8.652;2023-03-01T02:02:05;101175.22;;;23.65;40.02
51178;BME280;37243;49.814;8.652;2023-03-01T02:04:36;101174.41;;;23.64;39.42
51178;BME280;37243;49.814;8.652;2023-03-01T02:07:10;101176.31;;;23.64;39.57
51178;BME280;37243;49.814;8.652;2023-03-01T02:09:45;101184.53;;;23.64;39.68
51178;BME280;37243;49.814;8.652;2023-03-01T02:12:14;101182.59;;;23.64;39.38
51178;BME280;37243;49.814;8.652;2023-03-01T02:14:43;101178.78;;;23.65;40.06
51178;BME280;37243;49.814;8.652;2023-03-01T02:17:13;101182.59;;;23.64;39.40
51178;BME280;37243;49.814;8.652;2023-03-01T02:19:54;101186.47;;;23.63;39.65
51178;BME280;37243;49.814;8.652;2023-03-01T02:22:28;101187.25;;;23.64;39.42
51178;BME280;37243;49.814;8.652;2023-03-01T02:25:07;101187.25;;;23.64;39.99
51178;BME280;37243;49.814;8.652;2023-03-01T02:27:50;101181.28;;;23.62;39.81
51178;BME280;37243;49.814;8.652;2023-03-01T02:30:24;101180.19;;;23.63;39.58
51178;BME280;37243;49.814;8.652;2023-03-01T02:32:54;101177.44;;;23.63;39.94
51178;BME280;37243;49.814;8.652;2023-03-01T02:35:29;101180.19;;;23.63;39.59
51178;BME280;37243;49.814;8.652;2023-03-01T02:37:59;101164.56;;;23.63;39.68
51178;BME280;37243;49.814;8.652;2023-03-01T02:40:29;101165.34;;;23.64;39.66
51178;BME280;37243;49.814;8.652;2023-03-01T02:42:59;101161.00;;;23.63;39.99
51178;BME280;37243;49.814;8.652;2023-03-01T02:45:29;101157.44;;;23.62;39.92
51178;BME280;37243;49.814;8.652;2023-03-01T02:47:58;101166.19;;;23.64;39.75
51178;BME280;37243;49.814;8.652;2023-03-01T02:50:45;101150.63;;;23.60;39.46
51178;BME280;37243;49.814;8.652;2023-03-01T02:53:23;101152.25;;;23.61;39.84
51178;BME280;37243;49.814;8.652;2023-03-01T02:55:55;101141.84;;;23.63;39.89
51178;BME280;37243;49.814;8.652;2023-03-01T02:58:24;101142.94;;;23.62;39.89
51178;BME280;37243;49.814;8.652;2023-03-01T03:00:56;101141.28;;;23.61;39.38
51178;BME280;37243;49.814;8.652;2023-03-01T03:03:26;101133.88;;;23.61;39.88
51178;BME280;37243;49.814;8.652;2023-03-01T03:05:54;101137.44;;;23.62;39.53
51178;BME280;37243;49.814;8.652;2023-03-01T03:08:22;101126.50;;;23.62;39.84
51178;BME280;37243;49.814;8.652;2023-03-01T03:10:51;101128.41;;;23.61;39.04
51178;BME280;37243;49.814;8.652;2023-03-01T03:13:19;101122.09;;;23.61;39.82
51178;BME280;37243;49.814;8.652;2023-03-01T03:15:47;101119.38;;;23.61;39.30
51178;BME280;37243;49.814;8.652;2023-03-01T03:18:18;101113.91;;;23.61;39.78
51178;BME280;37243;49.814;8.652;2023-03-01T03:20:47;101116.63;;;23.61;39.70
51178;BME280;37243;49.814;8.652;2023-03-01T03:23:18;101111.16;;;23.61;39.37
51178;BME280;37243;49.814;8.652;2023-03-01T03:25:48;101103.75;;;23.61;39.09
51178;BME280;37243;49.814;8.652;2023-03-01T03:28:17;101107.31;;;23.62;39.59
51178;BME280;37243;49.814;8.652;2023-03-01T03:30:45;101105.69;;;23.61;39.69
51178;BME280;37243;49.814;8.652;2023-03-01T03:33:17;101104.88;;;23.60;39.19
51178;BME280;37243;49.814;8.652;2023-03-01T03:35:47;101099.41;;;23.60;39.13
51178;BME280;37243;49.814;8.652;2023-03-01T03:38:18;101104.06;;;23.60;38.97
51178;BME280;37243;49.814;8.652;2023-03-01T03:40:49;101094.72;;;23.61;39.81
51178;BME280;37243;49.814;8.652;2023-03-01T03:43:18;101101.31;;;23.60;39.11
51178;BME280;37243;49.814;8.652;2023-03-01T03:45:48;101095.03;;;23.59;39.56
51178;BME280;37243;49.814;8.652;2023-03-01T03:48:20;101097.75;;;23.59;39.08
51178;BME280;37243;49.814;8.652;2023-03-01T03:50:50;101093.09;;;23.60;39.73
51178;BME280;37243;49.814;8.652;2023-03-01T03:53:20;101086.81;;;23.59;39.14
51178;BME280;37243;49.814;8.652;2023-03-01T03:55:49;101087.63;;;23.60;39.10
51178;BME280;37243;49.814;8.652;2023-03-01T03:58:18;101075.84;;;23.59;39.24
51178;BME280;37243;49.814;8.652;2023-03-01T04:00:50;101091.19;;;23.60;39.42
51178;BME280;37243;49.814;8.652;2023-03-01T04:03:22;101086.00;;;23.59;39.45
51178;BME280;37243;49.814;8.652;2023-03-01T04:05:51;101087.63;;;23.60;39.77
51178;BME280;37243;49.814;8.652;2023-03-01T04:08:22;101086.00;;;23.59;39.12
51178;BME280;37243;49.814;8.652;2023-03-01T04:10:52;101081.34;;;23.59;39.11
51178;BME280;37243;49.814;8.652;2023-03-01T04:13:22;101087.63;;;23.60;39.64
51178;BME280;37243;49.814;8.652;2023-03-01T04:15:51;101083.25;;;23.59;39.42
51178;BME280;37243;49.814;8.652;2023-03-01T04:18:23;101088.72;;;23.59;39.15
51178;BME280;37243;49.814;8.652;2023-03-01T04:20:52;101090.38;;;23.60;39.38
51178;BME280;37243;49.814;8.652;2023-03-01T04:23:21;101092.28;;;23.59;39.15
51178;BME280;37243;49.814;8.652;2023-03-01T04:25:52;101092.28;;;23.59;39.58
51178;BME280;37243;49.814;8.652;2023-03-01T04:28:23;101094.22;;;23.59;39.23
51178;BME280;37243;49.814;8.652;2023-03-01T04:30:52;101091.47;;;23.59;39.11
51178;BME280;37243;49.814;8.652;2023-03-01T04:33:24;101087.09;;;23.58;39.44
51178;BME280;37243;49.814;8.652;2023-03-01T04:35:52;101088.72;;;23.59;39.04
51178;BME280;37243;49.814;8.652;2023-03-01T04:38:22;101089.81;;;23.58;39.34
51178;BME280;37243;49.814;8.652;2023-03-01T04:40:51;101082.16;;;23.60;39.70
51178;BME280;37243;49.814;8.652;2023-03-01T04:43:19;101080.50;;;23.59;39.04
51178;BME280;37243;49.814;8.652;2023-03-01T04:45:47;101083.56;;;23.57;39.68
51178;BME280;37243;49.814;8.652;2023-03-01T04:48:16;101078.88;;;23.58;39.43
51178;BME280;37243;49.814;8.652;2023-03-01T04:50:47;101095.31;;;23.58;39.53
51178;BME280;37243;49.814;8.652;2023-03-01T04:53:15;101089.03;;;23.57;39.11
51178;BME280;37243;49.814;8.652;2023-03-01T04:55:44;101088.22;;;23.57;39.34
51178;BME280;37243;49.814;8.652;2023-03-01T04:58:12;101088.22;;;23.57;39.51
51178;BME280;37243;49.814;8.652;2023-03-01T05:00:40;101083.56;;;23.57;39.64
51178;BME280;37243;49.814;8.652;2023-03-01T05:03:08;101086.28;;;23.57;39.04
51178;BME280;37243;49.814;8.652;2023-03-01T05:05:37;101086.28;;;23.57;39.34
51178;BME280;37243;49.814;8.652;2023-03-01T05:08:09;101084.66;;;23.56;39.27
51178;BME280;37243;49.814;8.652;2023-03-01T05:10:44;101082.75;;;23.57;39.72
51178;BME280;37243;49.814;8.652;2023-03-01T05:13:13;101083.56;;;23.57;39.08
51178;BME280;37243;49.814;8.652;2023-03-01T05:15:47;101079.19;;;23.56;39.43
51178;BME280;37243;49.814;8.652;2023-03-01T05:18:16;101086.56;;;23.56;39.86
51178;BME280;37243;49.814;8.652;2023-03-01T05:20:44;101075.63;;;23.56;39.68
51178;BME280;37243;49.814;8.652;2023-03-01T05:23:15;101063.06;;;23.55;39.59
51178;BME280;37243;49.814;8.652;2023-03-01T05:25:44;101057.56;;;23.55;39.70
51178;BME280;37243;49.814;8.652;2023-03-01T05:28:13;101069.31;;;23.55;39.50
51178;BME280;37243;49.814;8.652;2023-03-01T05:30:41;101060.31;;;23.55;40.14
51178;BME280;37243;49.814;8.652;2023-03-01T05:33:10;101062.22;;;23.54;39.50
51178;BME280;37243;49.814;8.652;2023-03-01T05:35:39;101060.31;;;23.55;39.73
51178;BME280;37243;49.814;8.652;2023-03-01T05:38:09;101050.47;;;23.54;39.58
51178;BME280;37243;49.814;8.652;2023-03-01T05:40:41;101066.06;;;23.53;39.90
51178;BME280;37243;49.814;8.652;2023-03-01T05:43:10;101057.03;;;23.53;39.99
51178;BME280;37243;49.814;8.652;2023-03-01T05:45:42;101061.41;;;23.54;39.79
51178;BME280;37243;49.814;8.652;2023-03-01T05:48:11;101053.19;;;23.54;39.60
51178;BME280;37243;49.814;8.652;2023-03-01T05:50:41;101051.56;;;23.53;39.96
51178;BME280;37243;49.814;8.652;2023-03-01T05:53:12;101059.75;;;23.53;40.26
51178;BME280;37243;49.814;8.652;2023-03-01T05:55:45;101070.72;;;23.53;40.39
51178;BME280;37243;49.814;8.652;2023-03-01T05:58:16;101070.72;;;23.53;39.87
51178;BME280;37243;49.814;8.652;2023-03-01T06:00:46;101067.16;;;23.52;40.16
51178;BME280;37243;49.814;8.652;2023-03-01T06:03:16;101066.38;;;23.52;39.68
51178;BME280;37243;49.814;8.652;2023-03-01T06:05:45;101052.69;;;23.52;39.99
51178;BME280;37243;49.814;8.652;2023-03-01T06:08:13;101068.28;;;23.51;40.03
51178;BME280;37243;49.814;8.652;2023-03-01T06:10:46;101063.91;;;23.50;40.16
51178;BME280;37243;49.814;8.652;2023-03-01T06:13:14;101067.47;;;23.51;40.39
51178;BME280;37243;49.814;8.652;2023-03-01T06:15:42;101066.66;;;23.50;39.70
51178;BME280;37243;49.814;8.652;2023-03-01T06:18:11;101062.00;;;23.51;40.29
51178;BME280;37243;49.814;8.652;2023-03-01T06:20:39;101065.81;;;23.50;40.26
51178;BME280;37243;49.814;8.652;2023-03-01T06:23:07;101067.47;;;23.51;40.03
51178;BME280;37243;49.814;8.652;2023-03-01T06:25:35;101067.47;;;23.51;40.30
51178;BME280;37243;49.814;8.652;2023-03-01T06:28:07;101057.34;;;23.51;39.77
51178;BME280;37243;49.814;8.652;2023-03-01T06:30:35;101058.94;;;23.52;39.62
51178;BME280;37243;49.814;8.652;2023-03-01T06:33:04;101054.28;;;23.53;39.70
51178;BME280;37243;49.814;8.652;2023-03-01T06:35:32;101060.31;;;23.55;39.68
51178;BME280;37243;49.814;8.652;2023-03-01T06:38:02;101062.22;;;23.54;40.33
51178;BME280;37243;49.814;8.652;2023-03-01T06:40:32;101066.31;;;23.57;40.29
51178;BME280;37243;49.814;8.652;2023-03-01T06:43:01;101052.63;;;23.57;39.73
51178;BME280;37243;49.814;8.652;2023-03-01T06:45:32;101063.25;;;23.58;40.18
51178;BME280;37243;49.814;8.652;2023-03-01T06:48:04;101066.00;;;23.58;39.94
51178;BME280;37243;49.814;8.652;2023-03-01T06:50:33;101061.06;;;23.60;40.06
51178;BME280;37243;49.814;8.652;2023-03-01T06:53:02;101057.19;;;23.61;39.41
51178;BME280;37243;49.814;8.652;2023-03-01T06:55:31;101071.13;;;23.65;39.93
51178;BME280;37243;49.814;8.652;2023-03-01T06:58:01;101062.09;;;23.64;39.91
51178;BME280;37243;49.814;8.652;2023-03-01T07:00:32;101063.75;;;23.65;39.55
51178;BME280;37243;49.814;8.652;2023-03-01T07:03:01;101062.34;;;23.68;39.50
51178;BME280;37243;49.814;8.652;2023-03-01T07:05:30;101053.03;;;23.69;40.06
51178;BME280;37243;49.814;8.652;2023-03-01T07:07:58;101053.53;;;23.71;39.47
51178;BME280;37243;49.814;8.652;2023-03-01T07:10:26;101055.97;;;23.72;39.38
51178;BME280;37243;49.814;8.652;2023-03-01T07:12:55;101052.94;;;23.74;39.82
51178;BME280;37243;49.814;8.652;2023-03-01T07:15:24;101047.69;;;23.78;39.90
51178;BME280;37243;49.814;8.652;2023-03-01T07:17:55;101054.50;;;23.80;39.35
51178;BME280;37243;49.814;8.652;2023-03-01T07:20:24;101040.22;;;23.83;39.16
51178;BME280;37243;49.814;8.652;2023-03-01T07:22:52;101039.94;;;23.85;39.20
51178;BME280;37243;49.814;8.652;2023-03-01T07:25:21;101039.34;;;23.88;39.25
51178;BME280;37243;49.814;8.652;2023-03-01T07:27:50;101042.31;;;23.91;39.19
51178;BME280;37243;49.814;8.652;2023-03-01T07:30:19;101044.47;;;23.94;39.37
51178;BME280;37243;49.814;8.652;2023-03-01T07:32:51;101036.47;;;23.98;39.46
51178;BME280;37243;49.814;8.652;2023-03-01T07:35:22;101033.94;;;24.01;38.86
51178;BME280;37243;49.814;8.652;2023-03-01T07:37:52;101043.72;;;24.07;39.11
51178;BME280;37243;49.814;8.652;2023-03-01T07:40:20;101028.34;;;24.11;39.09
51178;BME280;37243;49.814;8.652;2023-03-01T07:42:48;101030.00;;;24.12;39.02
51178;BME280;37243;49.814;8.652;2023-03-01T07:45:16;101029.41;;;24.15;38.84
51178;BME280;37243;49.814;8.652;2023-03-01T07:47:45;101027.19;;;24.17;38.88
51178;BME280;37243;49.814;8.652;2023-03-01T07:50:13;101024.13;;;24.19;38.87
51178;BME280;37243;49.814;8.652;2023-03-01T07:52:44;101017.53;;;24.20;38.65
51178;BME280;37243;49.814;8.652;2023-03-01T07:55:14;101021.59;;;24.22;39.23
51178;BME280;37243;49.814;8.652;2023-03-01T07:57:42;101020.50;;;24.23;38.94
51178;BME280;37243;49.814;8.652;2023-03-01T08:00:12;101008.41;;;24.24;38.82
51178;BME280;37243;49.814;8.652;2023-03-01T08:02:40;101008.94;;;24.26;38.42
51178;BME280;37243;49.814;8.652;2023-03-01T08:05:09;101008.34;;;24.30;39.04
51178;BME280;37243;49.814;8.652;2023-03-01T08:07:38;101011.59;;;24.32;38.40
51178;BME280;37243;49.814;8.652;2023-03-01T08:10:10;101017.59;;;24.34;39.07
51178;BME280;37243;49.814;8.652;2023-03-01T08:12:38;101002.47;;;24.36;38.40
51178;BME280;37243;49.814;8.652;2023-03-01T08:15:08;101015.31;;;24.41;38.37
51178;BME280;37243;49.814;8.652;2023-03-01T08:17:37;101015.81;;;24.43;38.44
51178;BME280;37243;49.814;8.652;2023-03-01T08:20:06;101014.72;;;24.44;38.42
51178;BME280;37243;49.814;8.652;2023-03-01T08:22:37;101015.72;;;24.48;38.79
51178;BME280;37243;49.814;8.652;2023-03-01T08:25:08;101009.13;;;24.49;38.50
51178;BME280;37243;49.814;8.652;2023-03-01T08:27:37;101004.16;;;24.51;38.15
51178;BME280;37243;49.814;8.652;2023-03-01T08:30:07;100996.47;;;24.53;38.65
51178;BME280;37243;49.814;8.652;2023-03-01T08:32:39;101001.63;;;24.54;38.55
51178;BME280;37243;49.814;8.652;2023-03-01T08:35:08;100995.88;;;24.56;38.43
51178;BME280;37243;49.814;8.652;2023-03-01T08:37:36;100994.44;;;24.58;38.16
51178;BME280;37243;49.814;8.652;2023-03-01T08:40:06;100995.78;;;24.61;38.02
51178;BME280;37243;49.814;8.652;2023-03-01T08:42:37;100984.47;;;24.62;37.85
51178;BME280;37243;49.814;8.652;2023-03-01T08:45:07;100983.88;;;24.65;38.22
51178;BME280;37243;49.814;8.652;2023-03-01T08:47:36;100987.44;;;24.66;37.98
51178;BME280;37243;49.814;8.652;2023-03-01T08:50:05;100981.03;;;24.70;37.76
51178;BME280;37243;49.814;8.652;2023-03-01T08:52:34;100978.72;;;24.77;37.89
51178;BME280;37243;49.814;8.652;2023-03-01T08:55:02;100979.97;;;24.85;37.59
51178;BME280;37243;49.814;8.652;2023-03-01T08:57:31;100966.69;;;24.92;37.63
51178;BME280;37243;49.814;8.652;2023-03-01T09:00:02;100968.44;;;25.02;37.56
51178;BME280;37243;49.814;8.652;2023-03-01T09:02:34;100971.06;;;25.07;37.60
51178;BME280;37243;49.814;8.652;2023-03-01T09:05:02;100968.53;;;25.10;36.96
51178;BME280;37243;49.814;8.652;2023-03-01T09:07:30;100958.06;;;25.12;36.90
51178;BME280;37243;49.814;8.652;2023-03-01T09:09:59;100962.44;;;25.13;37.55
51178;BME280;37243;49.814;8.652;2023-03-01T09:12:27;100959.38;;;25.15;36.83
51178;BME280;37243;49.814;8.652;2023-03-01T09:14:55;100957.47;;;25.15;37.18
51178;BME280;37243;49.814;8.652;2023-03-01T09:17:26;100956.34;;;25.16;36.78
51178;BME280;37243;49.814;8.652;2023-03-01T09:19:54;100952.47;;;25.17;36.52
51178;BME280;37243;49.814;8.652;2023-03-01T09:22:23;100957.97;;;25.17;36.88
51178;BME280;37243;49.814;8.652;2023-03-01T09:24:51;100949.44;;;25.19;36.77
51178;BME280;37243;49.814;8.652;2023-03-01T09:27:19;100933.78;;;25.19;37.05
51178;BME280;37243;49.814;8.652;2023-03-01T09:29:48;100943.63;;;25.20;36.59
51178;BME280;37243;49.814;8.652;2023-03-01T09:32:16;100933.13;;;25.22;36.77
51178;BME280;37243;49.814;8.652;2023-03-01T09:34:47;100931.53;;;25.21;36.27
51178;BME280;37243;49.814;8.652;2023-03-01T09:37:32;100932.03;;;25.23;37.08
51178;BME280;37243;49.814;8.652;2023-03-01T09:40:00;100934.16;;;25.26;36.46
51178;BME280;37243;49.814;8.652;2023-03-01T09:42:30;100927.56;;;25.27;36.79
51178;BME280;37243;49.814;8.652;2023-03-01T09:45:02;100929.97;;;25.29;36.60
51178;BME280;37243;49.814;8.652;2023-03-01T09:47:33;100914.31;;;25.29;36.49
51178;BME280;37243;49.814;8.652;2023-03-01T09:50:11;100917.06;;;25.29;36.61
51178;BME280;37243;49.814;8.652;2023-03-01T09:52:43;100915.63;;;25.32;36.63
51178;BME280;37243;49.814;8.652;2023-03-01T09:55:17;100922.78;;;25.33;36.84
51178;BME280;37243;49.814;8.652;2023-03-01T09:57:50;100912.59;;;25.33;36.50
51178;BME280;37243;49.814;8.652;2023-03-01T10:00:30;100917.28;;;25.33;36.71
51178;BME280;37243;49.814;8.652;2023-03-01T10:03:06;100921.34;;;25.35;36.63
51178;BME280;37243;49.814;8.652;2023-03-01T10:05:50;100919.69;;;25.34;36.89
51178;BME280;37243;49.814;8.652;2023-03-01T10:08:30;100924.09;;;25.35;36.50
51178;BME280;37243;49.814;8.652;2023-03-01T10:11:02;100920.22;;;25.36;36.49
51178;BME280;37243;49.814;8.652;2023-03-01T10:13:42;100922.44;;;25.34;36.48
51178;BME280;37243;49.814;8.652;2023-03-01T10:16:16;100922.97;;;25.36;36.81
51178;BME280;37243;49.814;8.652;2023-03-01T10:18:50;100922.16;;;25.36;36.28
51178;BME280;37243;49.814;8.652;2023-03-01T10:21:23;100914.22;;;25.34;36.63
51178;BME280;37243;49.814;8.652;2023-03-01T10:23:52;100909.25;;;25.36;36.73
51178;BME280;37243;49.814;8.652;2023-03-01T10:26:35;100906.78;;;25.35;36.26
51178;BME280;37243;49.814;8.652;2023-03-01T10:29:08;100899.38;;;25.35;36.47
51178;BME280;37243;49.814;8.652;2023-03-01T10:31:40;100901.00;;;25.36;36.85
51178;BME280;37243;49.814;8.652;2023-03-01T10:34:13;100893.88;;;25.35;36.74
51178;BME280;37243;49.814;8.652;2023-03-01T10:36:47;100893.06;;;25.35;36.97
51178;BME280;37243;49.814;8.652;2023-03-01T10:39:17;100898.56;;;25.35;36.26
51178;BME280;37243;49.814;8.652;2023-03-01T10:41:58;100889.00;;;25.32;36.43
51178;BME280;37243;49.814;8.652;2023-03-01T10:44:41;100874.78;;;25.30;36.60
51178;BME280;37243;49.814;8.652;2023-03-01T10:47:15;100873.13;;;25.29;36.56
51178;BME280;37243;49.814;8.652;2023-03-01T10:50:22;100875.69;;;25.26;36.85
51178;BME280;37243;49.814;8.652;2023-03-01T10:53:01;100859.72;;;25.28;36.24
51178;BME280;37243;49.814;8.652;2023-03-01T10:55:33;100851.16;;;25.29;36.99
51178;BME280;37243;49.814;8.652;2023-03-01T10:58:08;100853.91;;;25.29;36.82
51178;BME280;37243;49.814;8.652;2023-03-01T11:00:47;100854.41;;;25.31;36.54
51178;BME280;37243;49.814;8.652;2023-03-01T11:03:19;100862.03;;;25.34;36.14
51178;BME280;37243;49.814;8.652;2023-03-01T11:05:55;100854.94;;;25.33;36.73
51178;BME280;37243;49.814;8.652;2023-03-01T11:08:39;100849.72;;;25.32;36.23
51178;BME280;37243;49.814;8.652;2023-03-01T11:11:18;100853.63;;;25.31;36.37
51178;BME280;37243;49.814;8.652;2023-03-01T11:13:51;100845.06;;;25.32;36.59
51178;BME280;37243;49.814;8.652;2023-03-01T11:16:26;100837.16;;;25.31;36.42
51178;BME280;37243;49.814;8.652;2023-03-01T11:19:03;100833.59;;;25.30;36.93
51178;BME280;37243;49.814;8.652;2023-03-01T11:21:33;100830.31;;;25.28;36.94
51178;BME280;37243;49.814;8.652;2023-03-01T11:24:09;100827.88;;;25.27;36.36
51178;BME280;37243;49.814;8.652;2023-03-01T11:26:41;100816.56;;;25.28;37.01
51178;BME280;37243;49.814;8.652;2023-03-01T11:29:17;100815.25;;;25.26;36.60
51178;BME280;37243;49.814;8.652;2023-03-01T11:31:50;100813.34;;;25.26;36.56
51178;BME280;37243;49.814;8.652;2023-03-01T11:34:23;100810.09;;;25.24;36.55
51178;BME280;37243;49.814;8.652;2023-03-01T11:36:55;100813.97;;;25.23;36.67
51178;BME280;37243;49.814;8.652;2023-03-01T11:39:30;100818.63;;;25.23;36.70
51178;BME280;37243;49.814;8.652;2023-03-01T11:42:06;100803.59;;;25.20;36.45
51178;BME280;37243;49.814;8.652;2023-03-01T11:44:40;100800.56;;;25.22;37.44
51178;BME280;37243;49.814;8.652;2023-03-01T11:47:24;100791.00;;;25.19;36.84
51178;BME280;37243;49.814;8.652;2023-03-01T11:50:11;100804.19;;;25.17;37.40
51178;BME280;37243;49.814;8.652;2023-03-01T11:52:49;100794.03;;;25.18;37.00
51178;BME280;37243;49.814;8.652;2023-03-01T11:55:35;100793.22;;;25.17;37.32
51178;BME280;37243;49.814;8.652;2023-03-01T11:58:26;100787.25;;;25.15;37.67
51178;BME280;37243;49.814;8.652;2023-03-01T12:01:20;100793.84;;;25.14;37.12
51178;BME280;37243;49.814;8.652;2023-03-01T12:04:03;100782.84;;;25.14;37.53
51178;BME280;37243;49.814;8.652;2023-03-01T12:06:48;100785.94;;;25.13;37.02
51178;BME280;37243;49.814;8.652;2023-03-01T12:09:32;100764.25;;;25.11;37.25
51178;BME280;37243;49.814;8.652;2023-03-01T12:12:27;100781.06;;;25.10;37.80
51178;BME280;37243;49.814;8.652;2023-03-01T12:15:18;100769.25;;;25.09;37.31
51178;BME280;37243;49.814;8.652;2023-03-01T12:18:01;100765.69;;;25.09;37.12
51178;BME280;37243;49.814;8.652;2023-03-01T12:20:39;100763.75;;;25.09;37.50
51178;BME280;37243;49.814;8.652;2023-03-01T12:23:28;100749.03;;;25.05;37.33
51178;BME280;37243;49.814;8.652;2023-03-01T12:26:03;100736.94;;;25.06;37.10
51178;BME280;37243;49.814;8.652;2023-03-01T12:28:50;100727.38;;;25.04;37.36
51178;BME280;37243;49.814;8.652;2023-03-01T12:31:39;100721.91;;;25.04;37.33
51178;BME280;37243;49.814;8.652;2023-03-01T12:34:19;100712.56;;;25.05;37.31
51178;BME280;37243;49.814;8.652;2023-03-01T12:37:11;100714.47;;;25.04;38.22
51178;BME280;37243;49.814;8.652;2023-03-01T12:39:48;100702.97;;;25.02;37.78
51178;BME280;37243;49.814;8.652;2023-03-01T12:42:25;100693.63;;;25.03;37.35
51178;BME280;37243;49.814;8.652;2023-03-01T12:48:14;100690.41;;;25.01;37.39
51178;BME280;37243;49.814;8.652;2023-03-01T12:50:50;100692.00;;;25.02;37.39
51178;BME280;37243;49.814;8.652;2023-03-01T12:53:23;100681.84;;;25.03;37.90
51178;BME280;37243;49.814;8.652;2023-03-01T12:55:54;100681.53;;;25.04;37.47
51178;BME280;37243;49.814;8.652;2023-03-01T12:58:28;100681.53;;;25.04;38.04
51178;BME280;37243;49.814;8.652;2023-03-01T13:01:08;100674.41;;;25.03;37.50
51178;BME280;37243;49.814;8.652;2023-03-01T13:03:55;100678.78;;;25.04;37.87
51178;BME280;37243;49.814;8.652;2023-03-01T13:06:34;100664.75;;;25.06;37.98
51178;BME280;37243;49.814;8.652;2023-03-01T13:09:17;100668.00;;;25.08;37.87
51178;BME280;37243;49.814;8.652;2023-03-01T13:11:47;100658.63;;;25.09;38.11
51178;BME280;37243;49.814;8.652;2023-03-01T13:17:41;100650.72;;;25.07;38.04
51178;BME280;37243;49.814;8.652;2023-03-01T13:20:17;100643.78;;;25.10;37.80
51178;BME280;37243;49.814;8.652;2023-03-01T13:22:46;100645.41;;;25.11;37.66